メインページ
METAR-TAF:

METAR-TAF

空港 :

ジョージ・ベスト・ベルファスト・シティ空港

ベルファスト, 北アイルランド

緯度: 54-36N, 経度: 005-53W, 海抜: 5m

現時点の気象観測

当レポートは32分前の22:20(UTC)に作成
西の風 18kt、最大29ktの突風を伴う、西/南西から西/北西の間で変化する
気温 7°C
湿度 87%
気圧 988 hPa
視程: 4500m

METAR: EGAC 152220Z AUTO 27018G29KT 240V300 4500 RA OVC021/// 07/05 Q0988

時間: 22:52 (22:52 UTC)

予報

当レポートは5時間55分前の16:57(UTC)に作成
予報は15日の 18時(UTC)から 15日の 22時(UTC)まで有効
南東の風 22kt、最大32ktの突風を伴う
視程10km以上
高度1200ftの雲は散在している
15日の 18時(UTC)から 15日の 20時(UTC)まで徐々に
南/南東の風 10kt
15日の 18時(UTC)から 15日の 21時(UTC)まで一時的に
視程: 6000m
高度1000ftの千切れ雲あり
雨, 小雨, 霧雨
確率 40% :
15日の 18時(UTC)から 15日の 22時(UTC)まで一時的に
視程: 3000m
高度600ftの千切れ雲あり
大雨, 雨, 霧雨
15日の 20時(UTC)から 15日の 22時(UTC)まで徐々に
西/北西の風 20kt、最大30ktの突風を伴う

TAF: EGAC 151657Z 1518/1522 13022G32KT 9999 SCT012 BECMG 1518/1520 15010KT TEMPO 1518/1521 6000 RA -RADZ BKN010 PROB40 TEMPO 1518/1522 3000 +RA RADZ BKN006 BECMG 1520/1522 29020G30KT

4,000以上の空港の気象観測と天気予報(METAR報とTAF報)

利用可能な観測所は地図上に黄色い丸と赤い丸で示す。

丸の上にカーソルを重ねると観測所名を参照できる。

次にクリックすると気象観測と天気予報を参照できる。

マップの切り替え:黒色「×」印の緑ボタンをクリックして拡大、「-」印の緑ボタンをクリックして縮小、緑色の三角印をクリックして隣りの地図に切り替え


METAR-TAF: